• Join FlightAware (Why Join?)
  • Login
  • US Flag 
08:56PM EDT


 

Airport Tracker/Info


-or-


 

Live Flight TrackerFlight Track Log ✈ N7790J ✈ 26-Aug-2013 ✈ KGFL - CYOO

Flight Track Log - Related Links

Times and Time Zones

All times are in EDT time to prevent confusion due to time zone crossing. See the N7790J flight status page for this flight to view local times or setup timezone preferences in your user account.

Time Position Orientation Groundspeed Altitude Reporting Facility
EDT Latitude Longitude Course Direction KTS MPH feet Rate Location/Type
06:35AM 43.3114 -73.6042 171° South 109 125 1,400  Level Boston Center
06:36AM 43.2700 -73.5950 171° South 117 135 2,700 960 Climbing Boston Center
06:37AM 43.2633 -73.6289 255° West 101 116 3,800 1,020 Climbing Boston Center
06:38AM 43.2650 -73.6689 273° West 102 117 4,900 1,020 Climbing Boston Center
06:39AM 43.2583 -73.7058 256° West 117 135 5,800 900 Climbing Boston Center
06:40AM 43.2494 -73.7569 257° West 121 139 6,700 900 Climbing Boston Center
06:41AM 43.2425 -73.8111 260° West 125 144 7,800 960 Climbing Boston Center
06:42AM 43.2358 -73.8536 258° West 127 146 8,800 900 Climbing Boston Center
06:43AM 43.2289 -73.9047 259° West 132 152 9,700 600 Climbing Boston Center
06:44AM 43.2197 -73.9558 256° West 144 166 10,100 120 Climbing Boston Center
06:45AM 43.2106 -74.0211 259° West 174 200 10,000  Descending Boston Center
06:46AM 43.1806 -74.0772 234° Southwest 191 220 10,100  Climbing Boston Center
06:47AM 43.1425 -74.1219 221° Southwest 184 212 10,100  Level Boston Center
06:48AM 43.1022 -74.1661 219° Southwest 182 209 10,100  Level Boston Center
06:49AM 43.0950 -74.2256 261° West 158 182 10,100 -60 Level Boston Center
06:50AM 43.0919 -74.2853 266° West 153 176 10,000 -60 Descending Boston Center
06:51AM 43.0539 -74.3183 212° Southwest 181 208 10,000  Level Boston Center
06:52AM 43.0203 -74.3428 208° Southwest 190 219 10,000  Level Boston Center
06:53AM 42.9881 -74.3872 225° Southwest 172 198 10,000  Level Boston Center
06:54AM 42.9561 -74.4400 230° Southwest 171 197 10,000 -60 Level Boston Center
06:55AM 42.9653 -74.4972 282° West 152 175 9,900 -60 Descending Boston Center
06:56AM 42.9747 -74.5600 282° West 154 177 9,900  Level Boston Center
06:57AM 42.9819 -74.6142 280° West 155 178 9,900  Level Boston Center
06:58AM 42.9892 -74.6711 280° West 153 176 10,000  Climbing Boston Center
06:59AM 42.9944 -74.7281 277° West 149 171 9,900  Descending Boston Center
07:00AM 42.9911 -74.7847 265° West 162 186 10,000  Climbing Boston Center
07:01AM 42.9628 -74.8406 235° Southwest 183 211 10,000 -60 Level Boston Center
07:02AM 42.9306 -74.8875 227° Southwest 180 207 9,900  Descending Boston Center
07:03AM 42.9106 -74.9489 246° West 161 185 10,000  Climbing Boston Center
07:04AM 42.9239 -75.0033 289° West 144 166 9,900 -60 Descending Boston Center
07:05AM 42.9353 -75.0522 288° West 145 167 9,900  Level Boston Center
07:06AM 42.9444 -75.1092 282° West 147 169 9,900  Level Boston Center
07:07AM 42.9472 -75.1661 274° West 156 180 10,000  Climbing Boston Center
07:08AM 42.9542 -75.2258 279° West 158 182 9,900  Descending Boston Center
07:09AM 42.9567 -75.2856 273° West 154 177 10,000  Climbing Boston Center
07:10AM 42.9614 -75.3456 276° West 152 175 10,000  Level Boston Center
07:11AM 42.9683 -75.4053 279° West 152 175 10,000  Level Boston Center
07:12AM 42.9708 -75.4622 273° West 154 177 10,000  Level Boston Center
07:13AM 42.9756 -75.5194 276° West 157 181 10,000  Level Boston Center
07:14AM 42.9783 -75.5761 274° West 157 181 10,000  Level Boston Center
07:15AM 42.9828 -75.6361 276° West 157 181 10,000  Level Boston Center
07:16AM 42.9875 -75.6958 276° West 157 181 10,000  Level Boston Center
07:17AM 42.9919 -75.7531 276° West 156 180 10,000  Level Boston Center
07:18AM 42.9964 -75.8158 276° West 155 178 10,000  Level Boston Center
07:19AM 43.0008 -75.8756 276° West 154 177 10,000  Level Boston Center
07:20AM 43.0056 -75.9325 276° West 154 177 10,000  Level Boston Center
07:21AM 43.0097 -75.9925 275° West 154 177 10,000  Level Boston Center
07:22AM 43.0144 -76.0494 276° West 152 175 10,000  Level Boston Center
07:23AM 43.0186 -76.1094 275° West 155 178 10,000  Level Boston Center
07:24AM 43.0211 -76.1664 273° West 156 180 10,000  Level Boston Center
07:25AM 43.0253 -76.2264 275° West 156 180 10,000  Level Boston Center
07:26AM 43.0297 -76.2836 276° West 154 177 10,000  Level Boston Center
07:27AM 43.0339 -76.3433 275° West 154 177 10,000  Level Boston Center
07:28AM 43.0378 -76.4061 275° West 156 180 10,000  Level Boston Center
07:29AM 43.0419 -76.4661 275° West 157 181 10,000  Level Boston Center
07:30AM 43.0464 -76.5233 276° West 155 178 10,000  Level Boston Center
07:33AM 43.0539 -76.6450 275° West 154 177 10,000  Level Cleveland Center
07:34AM 43.0581 -76.7072 275° West 155 178 10,000  Level Cleveland Center
07:34AM 43.0597 -76.7611 272° West 153 176 10,000  Level Cleveland Center
07:35AM 43.0658 -76.8175 278° West 155 178 10,000  Level Cleveland Center
07:36AM 43.0678 -76.8772 273° West 155 178 10,000  Level Cleveland Center
07:37AM 43.0719 -76.9422 275° West 157 181 10,000  Level Cleveland Center
07:38AM 43.0778 -76.9989 278° West 155 178 10,000  Level Cleveland Center
07:39AM 43.0797 -77.0583 273° West 156 180 10,000  Level Cleveland Center
07:41AM 43.0836 -77.1178 275° West 155 178 10,000  Level Cleveland Center
07:42AM 43.0875 -77.1831 275° West 155 178 10,000  Level Cleveland Center
07:43AM 43.0914 -77.2369 276° West 154 177 10,000  Level Cleveland Center
07:44AM 43.0928 -77.2936 272° West 155 178 10,000  Level Cleveland Center
07:45AM 43.0819 -77.3511 256° West 154 177 10,000  Level Cleveland Center
07:46AM 43.0731 -77.4056 257° West 157 181 10,000  Level Cleveland Center
07:47AM 43.0581 -77.4689 252° West 156 180 10,000  Level Cleveland Center
07:48AM 43.0472 -77.5233 255° West 153 176 10,000  Level Cleveland Center
07:49AM 43.0383 -77.5836 259° West 157 181 10,000  Level Cleveland Center
07:50AM 43.0272 -77.6408 255° West 158 182 10,000  Level Cleveland Center
07:51AM 43.0161 -77.6983 255° West 152 175 10,000 -60 Level Cleveland Center
07:53AM 42.9833 -77.8167 249° West 150 173 9,900 -60 Descending Toronto Center
07:54AM 42.9667 -77.8500 236° Southwest 160 184 9,900  Level Toronto Center
07:55AM 42.9500 -77.9167 251° West 160 184 9,900  Level Toronto Center
07:56AM 42.9500 -77.9667 270° West 150 173 9,900  Level Toronto Center
07:57AM 42.9333 -78.0333 251° West 150 173 9,900  Level Toronto Center
07:58AM 42.9333 -78.0833 270° West 150 173 9,900  Level Toronto Center
07:59AM 42.9167 -78.1500 251° West 150 173 9,900  Level Toronto Center
08:00AM 42.9000 -78.2000 246° West 140 161 9,900  Level Toronto Center
08:01AM 42.9167 -78.2500 294° West 150 173 9,900  Level Toronto Center
08:02AM 42.9000 -78.3167 251° West 140 161 9,900  Level Toronto Center
08:03AM 42.9167 -78.3667 294° West 140 161 9,900  Level Toronto Center
08:04AM 42.9667 -78.4167 324° Northwest 140 161 10,000  Climbing Buffalo TRACON
08:05AM 42.9833 -78.4667 295° West 139 160 10,000  Level Buffalo TRACON
08:06AM 43.0000 -78.5000 304° West 137 158 10,000  Level Buffalo TRACON
08:07AM 43.0167 -78.5500 295° West 136 157 10,000  Level Buffalo TRACON
08:08AM 43.0333 -78.6000 295° West 133 153 10,000  Level Buffalo TRACON
08:09AM 43.0500 -78.6500 295° West 134 154 10,100  Climbing Buffalo TRACON
08:10AM 43.0667 -78.6833 304° West 144 166 10,100 -180 Level Buffalo TRACON
08:11AM 43.1167 -78.6833 360° North 162 186 9,800 -600 Descending Buffalo TRACON
08:12AM 43.1500 -78.7000 340° North 161 185 9,000 -840 Descending Buffalo TRACON
08:13AM 43.2000 -78.7000 360° North 152 175 8,200 -840 Descending Buffalo TRACON
08:14AM 43.2333 -78.7167 340° North 145 167 7,400 -900 Descending Buffalo TRACON
08:15AM 43.2833 -78.7167 360° North 150 173 6,400 -900 Descending Toronto Center
08:16AM 43.3167 -78.7167 360° North 150 173 5,600 -720 Descending Toronto Center
08:17AM 43.3667 -78.7333 346° North 150 173 5,000 -300 Descending Toronto Center
08:18AM 43.3833 -78.7667 305° West 130 150 5,000  Level Toronto Center
08:19AM 43.4167 -78.7833 340° North 130 150 5,000  Level Toronto Center
08:20AM 43.4500 -78.8000 340° North 130 150 5,000  Level Toronto Center
08:21AM 43.4833 -78.8333 324° Northwest 130 150 5,000  Level Toronto Center
08:22AM 43.5167 -78.8500 340° North 130 150 5,000  Level Toronto Center
08:23AM 43.5500 -78.8667 340° North 130 150 5,000 -300 Level Toronto Center
08:24AM 43.5833 -78.8500 20° North 150 173 4,500 -540 Descending Toronto Center
08:25AM 43.6167 -78.8333 20° North 160 184 4,000 -600 Descending Toronto Center
08:26AM 43.6500 -78.7833 47° Northeast 170 196 3,400 -540 Descending Toronto Center
08:27AM 43.7000 -78.7333 36° Northeast 170 196 3,000 -240 Descending Toronto Center
08:28AM 43.7333 -78.7167 20° North 160 184 3,000  Level Toronto Center
08:29AM 43.7667 -78.6833 36° Northeast 150 173 3,000 -300 Level Toronto Center
08:30AM 43.8167 -78.6667 14° North 150 173 2,400 -480 Descending Toronto Center
08:31AM 43.8500 -78.6333 36° Northeast 150 173 2,100 -180 Descending Toronto Center
08:32AM 43.8667 -78.6833 295° West 120 138 2,100  Level Toronto Center
08:33AM 43.8667 -78.7000 270° West 100 115 2,100  Level Toronto Center
08:34AM 43.8833 -78.7500 295° West 100 115 2,100 -120 Level Toronto Center
08:35AM 43.9000 -78.8000 295° West 110 127 1,900 -360 Descending Toronto Center
08:36AM 43.9000 -78.8167 270° West 90 104 1,400 -480 Descending Toronto Center
08:37AM 43.9167 -78.8500 305° West 80 92 1,000 -420 Descending Toronto Center